sensor_id;sensor_type;location;lat;lon;timestamp;pressure;altitude;pressure_sealevel;temperature;humidity
69247;BME280;56358;56.328;43.992;2022-11-15T00:01:14;100699.06;;;-1.53;68.18
69247;BME280;56358;56.328;43.992;2022-11-15T00:03:19;100697.22;;;-1.49;68.30
69247;BME280;56358;56.328;43.992;2022-11-15T00:05:21;100695.38;;;-1.45;68.29
69247;BME280;56358;56.328;43.992;2022-11-15T00:07:21;100698.84;;;-1.45;68.06
69247;BME280;56358;56.328;43.992;2022-11-15T00:09:22;100688.38;;;-1.46;67.97
69247;BME280;56358;56.328;43.992;2022-11-15T00:11:23;100698.75;;;-1.40;67.98
69247;BME280;56358;56.328;43.992;2022-11-15T00:13:23;100699.69;;;-1.43;67.75
69247;BME280;56358;56.328;43.992;2022-11-15T00:15:24;100708.16;;;-1.31;67.70
69247;BME280;56358;56.328;43.992;2022-11-15T00:17:25;100690.06;;;-1.44;67.62
69247;BME280;56358;56.328;43.992;2022-11-15T00:19:25;100683.72;;;-1.35;67.51
69247;BME280;56358;56.328;43.992;2022-11-15T00:21:26;100687.13;;;-1.31;67.45
69247;BME280;56358;56.328;43.992;2022-11-15T00:23:27;100603.28;;;-1.78;67.09
69247;BME280;56358;56.328;43.992;2022-11-15T00:25:28;100684.44;;;-1.28;66.75
69247;BME280;56358;56.328;43.992;2022-11-15T00:27:28;100701.81;;;-1.23;66.76
69247;BME280;56358;56.328;43.992;2022-11-15T00:29:29;100694.72;;;-1.19;66.39
69247;BME280;56358;56.328;43.992;2022-11-15T00:31:30;100676.50;;;-1.27;66.70
69247;BME280;56358;56.328;43.992;2022-11-15T00:33:30;100672.13;;;-1.28;66.80
69247;BME280;56358;56.328;43.992;2022-11-15T00:35:33;100603.88;;;-1.67;66.74
69247;BME280;56358;56.328;43.992;2022-11-15T00:37:34;100594.19;;;-1.65;66.60
69247;BME280;56358;56.328;43.992;2022-11-15T00:39:34;100673.53;;;-1.14;66.50
69247;BME280;56358;56.328;43.992;2022-11-15T00:41:35;100684.91;;;-1.14;66.13
69247;BME280;56358;56.328;43.992;2022-11-15T00:43:36;100658.75;;;-1.19;65.96
69247;BME280;56358;56.328;43.992;2022-11-15T00:45:36;100658.00;;;-1.24;65.71
69247;BME280;56358;56.328;43.992;2022-11-15T00:47:37;100664.84;;;-1.16;65.82
69247;BME280;56358;56.328;43.992;2022-11-15T00:49:38;100667.81;;;-1.30;65.38
69247;BME280;56358;56.328;43.992;2022-11-15T00:51:38;100585.63;;;-1.73;65.47
69247;BME280;56358;56.328;43.992;2022-11-15T00:53:39;100676.47;;;-1.25;66.16
69247;BME280;56358;56.328;43.992;2022-11-15T00:55:39;100671.19;;;-1.25;65.83
69247;BME280;56358;56.328;43.992;2022-11-15T00:57:40;100691.44;;;-1.29;65.48
69247;BME280;56358;56.328;43.992;2022-11-15T00:59:41;100650.63;;;-1.44;65.95
69247;BME280;56358;56.328;43.992;2022-11-15T01:01:41;100575.53;;;-1.89;66.39
69247;BME280;56358;56.328;43.992;2022-11-15T01:03:42;100650.44;;;-1.36;66.19
69247;BME280;56358;56.328;43.992;2022-11-15T01:05:43;100646.97;;;-1.38;65.56
69247;BME280;56358;56.328;43.992;2022-11-15T01:07:44;100664.19;;;-1.26;65.75
69247;BME280;56358;56.328;43.992;2022-11-15T01:09:44;100659.81;;;-1.26;66.23
69247;BME280;56358;56.328;43.992;2022-11-15T01:11:45;100672.09;;;-1.26;65.97
69247;BME280;56358;56.328;43.992;2022-11-15T01:13:46;100660.81;;;-1.31;65.81
69247;BME280;56358;56.328;43.992;2022-11-15T01:15:46;100665.09;;;-1.26;66.03
69247;BME280;56358;56.328;43.992;2022-11-15T01:17:47;100659.81;;;-1.26;65.42
69247;BME280;56358;56.328;43.992;2022-11-15T01:19:48;100572.63;;;-1.78;65.42
69247;BME280;56358;56.328;43.992;2022-11-15T01:21:49;100655.47;;;-1.27;65.04
69247;BME280;56358;56.328;43.992;2022-11-15T01:23:54;100657.16;;;-1.24;65.40
69247;BME280;56358;56.328;43.992;2022-11-15T01:25:59;100660.69;;;-1.25;64.99
69247;BME280;56358;56.328;43.992;2022-11-15T01:28:00;100654.84;;;-1.37;64.80
69247;BME280;56358;56.328;43.992;2022-11-15T01:30:01;100660.91;;;-1.35;64.87
69247;BME280;56358;56.328;43.992;2022-11-15T01:32:04;100686.41;;;-1.38;64.78
69247;BME280;56358;56.328;43.992;2022-11-15T01:34:04;100648.03;;;-1.45;65.23
69247;BME280;56358;56.328;43.992;2022-11-15T01:36:06;100592.13;;;-1.88;65.16
69247;BME280;56358;56.328;43.992;2022-11-15T01:38:08;100661.09;;;-1.42;65.32
69247;BME280;56358;56.328;43.992;2022-11-15T01:40:09;100667.06;;;-1.36;65.17
69247;BME280;56358;56.328;43.992;2022-11-15T01:42:12;100665.31;;;-1.35;65.20
69247;BME280;56358;56.328;43.992;2022-11-15T01:46:35;100569.44;;;-1.91;65.08
69247;BME280;56358;56.328;43.992;2022-11-15T01:48:37;100520.41;;;-2.26;64.89
69247;BME280;56358;56.328;43.992;2022-11-15T01:50:38;100665.41;;;-1.40;65.08
69247;BME280;56358;56.328;43.992;2022-11-15T01:52:39;100665.47;;;-1.41;64.90
69247;BME280;56358;56.328;43.992;2022-11-15T01:54:41;100671.78;;;-1.48;64.77
69247;BME280;56358;56.328;43.992;2022-11-15T01:57:05;100661.28;;;-1.48;65.19
69247;BME280;56358;56.328;43.992;2022-11-15T01:59:08;100576.78;;;-2.04;65.27
69247;BME280;56358;56.328;43.992;2022-11-15T02:01:09;100665.97;;;-1.61;65.07
69247;BME280;56358;56.328;43.992;2022-11-15T02:03:10;100588.13;;;-2.03;65.11
69247;BME280;56358;56.328;43.992;2022-11-15T02:05:11;100526.34;;;-2.56;65.68
69247;BME280;56358;56.328;43.992;2022-11-15T02:07:15;100658.94;;;-1.61;65.63
69247;BME280;56358;56.328;43.992;2022-11-15T02:09:17;100649.56;;;-1.71;65.78
69247;BME280;56358;56.328;43.992;2022-11-15T02:11:17;100657.25;;;-1.63;65.52
69247;BME280;56358;56.328;43.992;2022-11-15T02:13:19;100563.19;;;-2.23;65.76
69247;BME280;56358;56.328;43.992;2022-11-15T02:15:20;100665.16;;;-1.63;65.91
69247;BME280;56358;56.328;43.992;2022-11-15T02:22:41;100663.41;;;-1.64;66.04
69247;BME280;56358;56.328;43.992;2022-11-15T02:25:11;100663.47;;;-1.66;65.66
69247;BME280;56358;56.328;43.992;2022-11-15T02:30:12;100653.00;;;-1.69;65.90
69247;BME280;56358;56.328;43.992;2022-11-15T02:32:24;100659.06;;;-1.65;66.26
69247;BME280;56358;56.328;43.992;2022-11-15T02:37:05;100642.69;;;-1.77;66.20
69247;BME280;56358;56.328;43.992;2022-11-15T02:41:31;100639.94;;;-1.72;66.07
69247;BME280;56358;56.328;43.992;2022-11-15T02:46:09;100665.97;;;-1.61;66.30
69247;BME280;56358;56.328;43.992;2022-11-15T02:48:13;100655.63;;;-1.69;67.48
69247;BME280;56358;56.328;43.992;2022-11-15T02:50:20;100660.00;;;-1.68;66.97
69247;BME280;56358;56.328;43.992;2022-11-15T02:52:23;100668.09;;;-1.77;67.10
69247;BME280;56358;56.328;43.992;2022-11-15T02:54:30;100665.38;;;-1.73;67.33
69247;BME280;56358;56.328;43.992;2022-11-15T02:56:31;100656.78;;;-1.79;68.30
69247;BME280;56358;56.328;43.992;2022-11-15T02:59:17;100670.50;;;-1.68;67.61
69247;BME280;56358;56.328;43.992;2022-11-15T03:08:02;100661.81;;;-1.70;67.01
69247;BME280;56358;56.328;43.992;2022-11-15T03:12:13;100663.47;;;-1.66;67.90
69247;BME280;56358;56.328;43.992;2022-11-15T03:14:25;100584.97;;;-2.17;67.89
69247;BME280;56358;56.328;43.992;2022-11-15T03:18:35;100678.25;;;-1.62;68.07
69247;BME280;56358;56.328;43.992;2022-11-15T03:20:36;100590.13;;;-2.13;67.81
69247;BME280;56358;56.328;43.992;2022-11-15T03:22:39;100683.56;;;-1.63;67.50
69247;BME280;56358;56.328;43.992;2022-11-15T03:24:43;100667.75;;;-1.62;67.38
69247;BME280;56358;56.328;43.992;2022-11-15T03:26:47;100680.94;;;-1.63;67.53
69247;BME280;56358;56.328;43.992;2022-11-15T03:28:56;100665.50;;;-1.79;67.51
69247;BME280;56358;56.328;43.992;2022-11-15T03:30:58;100667.06;;;-1.72;67.32
69247;BME280;56358;56.328;43.992;2022-11-15T03:33:02;100673.25;;;-1.73;67.51
69247;BME280;56358;56.328;43.992;2022-11-15T03:35:41;100678.38;;;-1.68;67.84
69247;BME280;56358;56.328;43.992;2022-11-15T03:37:37;100632.66;;;-1.97;67.99
69247;BME280;56358;56.328;43.992;2022-11-15T03:39:41;100667.16;;;-1.75;68.49
69247;BME280;56358;56.328;43.992;2022-11-15T03:44:14;100684.63;;;-1.72;67.84
69247;BME280;56358;56.328;43.992;2022-11-15T03:46:32;100685.47;;;-1.72;68.06
69247;BME280;56358;56.328;43.992;2022-11-15T03:48:39;100678.78;;;-1.83;68.24
69247;BME280;56358;56.328;43.992;2022-11-15T03:50:42;100666.34;;;-1.77;68.68
69247;BME280;56358;56.328;43.992;2022-11-15T03:52:47;100680.34;;;-1.76;69.09
69247;BME280;56358;56.328;43.992;2022-11-15T03:54:56;100701.19;;;-1.69;68.23
69247;BME280;56358;56.328;43.992;2022-11-15T03:56:57;100696.94;;;-1.74;68.85
69247;BME280;56358;56.328;43.992;2022-11-15T03:58:57;100701.19;;;-1.69;68.60
69247;BME280;56358;56.328;43.992;2022-11-15T04:00:58;100704.72;;;-1.70;68.34
69247;BME280;56358;56.328;43.992;2022-11-15T04:02:59;100680.34;;;-1.76;68.32
69247;BME280;56358;56.328;43.992;2022-11-15T04:05:00;100711.59;;;-1.64;69.02
69247;BME280;56358;56.328;43.992;2022-11-15T04:07:00;100686.41;;;-1.73;68.50
69247;BME280;56358;56.328;43.992;2022-11-15T04:09:01;100704.59;;;-1.63;68.40
69247;BME280;56358;56.328;43.992;2022-11-15T04:11:02;100689.03;;;-1.73;68.95
69247;BME280;56358;56.328;43.992;2022-11-15T04:13:03;100679.41;;;-1.74;68.64
69247;BME280;56358;56.328;43.992;2022-11-15T04:15:06;100692.28;;;-1.63;68.36
69247;BME280;56358;56.328;43.992;2022-11-15T04:17:09;100686.25;;;-1.66;68.94
69247;BME280;56358;56.328;43.992;2022-11-15T04:19:10;100541.16;;;-2.55;68.70
69247;BME280;56358;56.328;43.992;2022-11-15T04:21:29;100678.44;;;-1.70;68.73
69247;BME280;56358;56.328;43.992;2022-11-15T04:23:49;100697.47;;;-1.60;68.79
69247;BME280;56358;56.328;43.992;2022-11-15T04:26:10;100696.69;;;-1.63;68.78
69247;BME280;56358;56.328;43.992;2022-11-15T04:28:11;100632.66;;;-1.97;68.81
69247;BME280;56358;56.328;43.992;2022-11-15T04:30:12;100702.50;;;-1.50;68.69
69247;BME280;56358;56.328;43.992;2022-11-15T04:32:13;100689.53;;;-1.57;68.68
69247;BME280;56358;56.328;43.992;2022-11-15T04:34:13;100690.44;;;-1.58;68.43
69247;BME280;56358;56.328;43.992;2022-11-15T04:36:14;100634.31;;;-1.94;68.62
69247;BME280;56358;56.328;43.992;2022-11-15T04:38:34;100702.72;;;-1.60;68.77
69247;BME280;56358;56.328;43.992;2022-11-15T04:40:36;100700.81;;;-1.53;68.74
69247;BME280;56358;56.328;43.992;2022-11-15T04:42:40;100711.28;;;-1.50;68.81
69247;BME280;56358;56.328;43.992;2022-11-15T04:44:41;100699.41;;;-1.68;68.92
69247;BME280;56358;56.328;43.992;2022-11-15T04:46:42;100720.06;;;-1.51;69.29
69247;BME280;56358;56.328;43.992;2022-11-15T04:48:43;100716.56;;;-1.52;69.39
69247;BME280;56358;56.328;43.992;2022-11-15T04:50:43;100695.81;;;-1.64;69.80
69247;BME280;56358;56.328;43.992;2022-11-15T04:52:51;100687.50;;;-1.83;69.26
69247;BME280;56358;56.328;43.992;2022-11-15T04:54:52;100717.56;;;-1.57;69.32
69247;BME280;56358;56.328;43.992;2022-11-15T04:56:52;100716.72;;;-1.58;69.37
69247;BME280;56358;56.328;43.992;2022-11-15T04:58:53;100724.56;;;-1.56;69.16
69247;BME280;56358;56.328;43.992;2022-11-15T05:00:54;100721.88;;;-1.55;69.75
69247;BME280;56358;56.328;43.992;2022-11-15T05:02:55;100705.47;;;-1.64;68.95
69247;BME280;56358;56.328;43.992;2022-11-15T05:05:14;100715.09;;;-1.63;68.52
69247;BME280;56358;56.328;43.992;2022-11-15T05:07:15;100642.63;;;-2.11;68.50
69247;BME280;56358;56.328;43.992;2022-11-15T05:09:17;100736.88;;;-1.58;68.66
69247;BME280;56358;56.328;43.992;2022-11-15T05:11:18;100729.44;;;-1.77;68.76
69247;BME280;56358;56.328;43.992;2022-11-15T05:13:20;100629.47;;;-2.11;68.24
69247;BME280;56358;56.328;43.992;2022-11-15T05:15:21;100727.28;;;-1.59;67.53
69247;BME280;56358;56.328;43.992;2022-11-15T05:17:21;100703.19;;;-1.80;67.77
69247;BME280;56358;56.328;43.992;2022-11-15T05:19:22;100658.22;;;-2.05;67.34
69247;BME280;56358;56.328;43.992;2022-11-15T05:21:23;100732.78;;;-1.70;67.64
69247;BME280;56358;56.328;43.992;2022-11-15T05:23:24;100720.38;;;-1.65;67.56
69247;BME280;56358;56.328;43.992;2022-11-15T05:25:25;100716.13;;;-1.71;67.48
69247;BME280;56358;56.328;43.992;2022-11-15T05:27:25;100732.59;;;-1.62;67.04
69247;BME280;56358;56.328;43.992;2022-11-15T05:29:26;100694.56;;;-1.85;66.96
69247;BME280;56358;56.328;43.992;2022-11-15T05:31:27;100678.13;;;-1.95;67.38
69247;BME280;56358;56.328;43.992;2022-11-15T05:33:28;100650.28;;;-2.02;67.31
69247;BME280;56358;56.328;43.992;2022-11-15T05:35:35;100735.84;;;-1.51;65.87
69247;BME280;56358;56.328;43.992;2022-11-15T05:37:39;100728.97;;;-1.57;66.19
69247;BME280;56358;56.328;43.992;2022-11-15T05:39:39;100680.69;;;-1.92;65.73
69247;BME280;56358;56.328;43.992;2022-11-15T05:41:49;100716.94;;;-1.67;66.09
69247;BME280;56358;56.328;43.992;2022-11-15T05:43:53;100726.56;;;-1.66;65.66
69247;BME280;56358;56.328;43.992;2022-11-15T05:45:54;100741.28;;;-1.59;65.37
69247;BME280;56358;56.328;43.992;2022-11-15T05:47:56;100658.25;;;-2.07;65.31
69247;BME280;56358;56.328;43.992;2022-11-15T05:49:59;100741.22;;;-1.57;65.07
69247;BME280;56358;56.328;43.992;2022-11-15T05:52:00;100743.88;;;-1.57;64.47
69247;BME280;56358;56.328;43.992;2022-11-15T05:54:02;100647.97;;;-2.16;64.08
69247;BME280;56358;56.328;43.992;2022-11-15T05:56:04;100668.66;;;-2.00;64.64
69247;BME280;56358;56.328;43.992;2022-11-15T05:58:06;100747.44;;;-1.60;64.57
69247;BME280;56358;56.328;43.992;2022-11-15T06:00:08;100755.31;;;-1.60;65.06
69247;BME280;56358;56.328;43.992;2022-11-15T06:02:10;100760.69;;;-1.64;64.28
69247;BME280;56358;56.328;43.992;2022-11-15T06:04:11;100745.97;;;-1.73;64.04
69247;BME280;56358;56.328;43.992;2022-11-15T06:06:12;100757.06;;;-1.59;64.25
69247;BME280;56358;56.328;43.992;2022-11-15T06:08:12;100758.81;;;-1.59;64.84
69247;BME280;56358;56.328;43.992;2022-11-15T06:10:13;100759.56;;;-1.53;64.40
69247;BME280;56358;56.328;43.992;2022-11-15T06:12:13;100756.78;;;-1.48;64.59
69247;BME280;56358;56.328;43.992;2022-11-15T06:14:14;100746.31;;;-1.49;64.23
69247;BME280;56358;56.328;43.992;2022-11-15T06:16:15;100750.69;;;-1.48;64.07
69247;BME280;56358;56.328;43.992;2022-11-15T06:18:16;100754.13;;;-1.46;64.15
69247;BME280;56358;56.328;43.992;2022-11-15T06:20:16;100743.69;;;-1.49;64.09
69247;BME280;56358;56.328;43.992;2022-11-15T06:22:17;100738.50;;;-1.53;63.55
69247;BME280;56358;56.328;43.992;2022-11-15T06:24:18;100755.72;;;-1.39;64.31
69247;BME280;56358;56.328;43.992;2022-11-15T06:26:18;100715.84;;;-1.58;65.04
69247;BME280;56358;56.328;43.992;2022-11-15T06:28:19;100677.03;;;-1.84;63.16
69247;BME280;56358;56.328;43.992;2022-11-15T06:30:20;100679.72;;;-1.88;64.25
69247;BME280;56358;56.328;43.992;2022-11-15T06:32:21;100781.06;;;-1.35;64.28
69247;BME280;56358;56.328;43.992;2022-11-15T06:34:22;100734.91;;;-1.48;63.09
69247;BME280;56358;56.328;43.992;2022-11-15T06:36:22;100675.16;;;-1.79;62.92
69247;BME280;56358;56.328;43.992;2022-11-15T06:38:23;100685.47;;;-1.72;62.67
69247;BME280;56358;56.328;43.992;2022-11-15T06:40:23;100626.94;;;-2.16;63.08
69247;BME280;56358;56.328;43.992;2022-11-15T06:42:24;100767.19;;;-1.42;62.44
69247;BME280;56358;56.328;43.992;2022-11-15T06:44:25;100733.47;;;-1.62;62.85
69247;BME280;56358;56.328;43.992;2022-11-15T06:46:25;100779.44;;;-1.42;63.24
69247;BME280;56358;56.328;43.992;2022-11-15T06:48:27;100614.19;;;-2.31;63.39
69247;BME280;56358;56.328;43.992;2022-11-15T06:50:27;100756.72;;;-1.45;62.88
69247;BME280;56358;56.328;43.992;2022-11-15T06:52:28;100727.38;;;-1.64;63.39
69247;BME280;56358;56.328;43.992;2022-11-15T06:54:32;100673.78;;;-1.96;63.19
69247;BME280;56358;56.328;43.992;2022-11-15T06:56:33;100772.56;;;-1.48;63.52
69247;BME280;56358;56.328;43.992;2022-11-15T06:58:35;100759.59;;;-1.56;62.99
69247;BME280;56358;56.328;43.992;2022-11-15T07:00:36;100750.09;;;-1.61;63.44
69247;BME280;56358;56.328;43.992;2022-11-15T07:02:36;100767.31;;;-1.48;63.59
69247;BME280;56358;56.328;43.992;2022-11-15T07:04:37;100723.94;;;-1.66;62.43
69247;BME280;56358;56.328;43.992;2022-11-15T07:06:37;100681.63;;;-1.94;62.70
69247;BME280;56358;56.328;43.992;2022-11-15T07:08:38;100774.28;;;-1.45;64.00
69247;BME280;56358;56.328;43.992;2022-11-15T07:10:39;100698.75;;;-1.76;63.43
69247;BME280;56358;56.328;43.992;2022-11-15T07:12:39;100758.31;;;-1.38;63.47
69247;BME280;56358;56.328;43.992;2022-11-15T07:14:40;100745.25;;;-1.42;63.80
69247;BME280;56358;56.328;43.992;2022-11-15T07:16:41;100758.00;;;-1.25;63.64
69247;BME280;56358;56.328;43.992;2022-11-15T07:18:41;100754.44;;;-1.23;63.13
69247;BME280;56358;56.328;43.992;2022-11-15T07:20:42;100690.44;;;-1.58;62.92
69247;BME280;56358;56.328;43.992;2022-11-15T07:22:43;100744.81;;;-1.24;63.09
69247;BME280;56358;56.328;43.992;2022-11-15T07:24:45;100690.16;;;-1.47;63.37
69247;BME280;56358;56.328;43.992;2022-11-15T07:26:46;100781.88;;;-0.97;62.59
69247;BME280;56358;56.328;43.992;2022-11-15T07:28:47;100765.97;;;-0.92;62.68
69247;BME280;56358;56.328;43.992;2022-11-15T07:30:47;100750.88;;;-0.86;62.14
69247;BME280;56358;56.328;43.992;2022-11-15T07:32:55;100662.09;;;-1.46;61.28
69247;BME280;56358;56.328;43.992;2022-11-15T07:34:56;100757.84;;;-0.83;61.76
69247;BME280;56358;56.328;43.992;2022-11-15T07:36:57;100739.00;;;-1.02;61.63
69247;BME280;56358;56.328;43.992;2022-11-15T07:38:57;100659.50;;;-1.48;61.71
69247;BME280;56358;56.328;43.992;2022-11-15T07:41:00;100763.28;;;-0.91;62.25
69247;BME280;56358;56.328;43.992;2022-11-15T07:43:05;100741.50;;;-0.96;62.22
69247;BME280;56358;56.328;43.992;2022-11-15T07:45:06;100686.09;;;-1.24;61.95
69247;BME280;56358;56.328;43.992;2022-11-15T07:47:07;100764.50;;;-0.70;62.05
69247;BME280;56358;56.328;43.992;2022-11-15T07:49:08;100747.91;;;-0.73;62.33
69247;BME280;56358;56.328;43.992;2022-11-15T07:51:14;100692.19;;;-0.89;61.54
69247;BME280;56358;56.328;43.992;2022-11-15T07:53:15;100762.13;;;-0.47;61.19
69247;BME280;56358;56.328;43.992;2022-11-15T07:55:16;100767.28;;;-0.43;61.46
69247;BME280;56358;56.328;43.992;2022-11-15T07:57:16;100695.16;;;-0.70;61.74
69247;BME280;56358;56.328;43.992;2022-11-15T07:59:17;100758.78;;;-0.21;61.65
69247;BME280;56358;56.328;43.992;2022-11-15T08:01:17;100759.53;;;-0.18;61.66
69247;BME280;56358;56.328;43.992;2022-11-15T08:03:18;100743.91;;;-0.24;60.59
69247;BME280;56358;56.328;43.992;2022-11-15T08:05:19;100753.03;;;-0.06;61.27
69247;BME280;56358;56.328;43.992;2022-11-15T08:07:19;100750.25;;;0.01;61.29
69247;BME280;56358;56.328;43.992;2022-11-15T08:09:20;100713.72;;;-0.13;61.81
69247;BME280;56358;56.328;43.992;2022-11-15T08:11:21;100752.56;;;0.11;61.50
69247;BME280;56358;56.328;43.992;2022-11-15T08:13:21;100723.38;;;-0.12;61.05
69247;BME280;56358;56.328;43.992;2022-11-15T08:15:22;100769.59;;;-0.01;61.64
69247;BME280;56358;56.328;43.992;2022-11-15T08:17:24;100761.63;;;0.01;61.50
69247;BME280;56358;56.328;43.992;2022-11-15T08:19:25;100738.88;;;-0.02;61.32
69247;BME280;56358;56.328;43.992;2022-11-15T08:21:25;100723.47;;;-0.15;61.30
69247;BME280;56358;56.328;43.992;2022-11-15T08:23:26;100747.66;;;-0.01;61.44
69247;BME280;56358;56.328;43.992;2022-11-15T08:25:29;100554.28;;;-1.15;61.52
69247;BME280;56358;56.328;43.992;2022-11-15T08:27:29;100729.38;;;-0.07;62.04
69247;BME280;56358;56.328;43.992;2022-11-15T08:29:30;100733.75;;;-0.06;62.28
69247;BME280;56358;56.328;43.992;2022-11-15T08:31:31;100729.19;;;-0.01;62.33
69247;BME280;56358;56.328;43.992;2022-11-15T08:33:32;100737.84;;;0.04;62.08
69247;BME280;56358;56.328;43.992;2022-11-15T08:35:33;100728.09;;;0.06;62.25
69247;BME280;56358;56.328;43.992;2022-11-15T08:37:34;100730.72;;;0.06;61.68
69247;BME280;56358;56.328;43.992;2022-11-15T08:39:35;100725.56;;;0.03;61.78
69247;BME280;56358;56.328;43.992;2022-11-15T08:41:37;100736.97;;;0.04;61.75
69247;BME280;56358;56.328;43.992;2022-11-15T08:43:37;100736.06;;;0.05;62.19
69247;BME280;56358;56.328;43.992;2022-11-15T08:45:38;100743.13;;;0.04;62.31
69247;BME280;56358;56.328;43.992;2022-11-15T08:47:39;100750.09;;;0.05;62.04
69247;BME280;56358;56.328;43.992;2022-11-15T08:49:39;100747.44;;;0.07;62.20
69247;BME280;56358;56.328;43.992;2022-11-15T08:51:40;100748.41;;;0.03;62.36
69247;BME280;56358;56.328;43.992;2022-11-15T08:53:41;100750.88;;;0.09;62.31
69247;BME280;56358;56.328;43.992;2022-11-15T08:55:42;100690.34;;;-0.24;62.59
69247;BME280;56358;56.328;43.992;2022-11-15T08:57:43;100720.63;;;-0.08;62.56
69247;BME280;56358;56.328;43.992;2022-11-15T08:59:44;100734.19;;;0.08;62.05
69247;BME280;56358;56.328;43.992;2022-11-15T09:01:44;100666.94;;;-0.35;61.78
69247;BME280;56358;56.328;43.992;2022-11-15T09:03:45;100748.34;;;0.06;62.11
69247;BME280;56358;56.328;43.992;2022-11-15T09:05:46;100738.69;;;0.05;62.00
69247;BME280;56358;56.328;43.992;2022-11-15T09:07:46;100658.31;;;-0.40;62.18
69247;BME280;56358;56.328;43.992;2022-11-15T09:09:47;100744.53;;;0.14;62.35
69247;BME280;56358;56.328;43.992;2022-11-15T09:11:48;100741.16;;;0.11;62.11
69247;BME280;56358;56.328;43.992;2022-11-15T09:13:49;100658.03;;;-0.31;62.25
69247;BME280;56358;56.328;43.992;2022-11-15T09:15:50;100726.28;;;0.08;62.83
69247;BME280;56358;56.328;43.992;2022-11-15T09:17:50;100742.00;;;0.11;62.56
69247;BME280;56358;56.328;43.992;2022-11-15T09:19:51;100749.91;;;0.11;62.43
69247;BME280;56358;56.328;43.992;2022-11-15T09:21:52;100727.63;;;-0.08;62.52
69247;BME280;56358;56.328;43.992;2022-11-15T09:23:52;100747.81;;;-0.07;63.70
69247;BME280;56358;56.328;43.992;2022-11-15T09:26:01;100668.41;;;-0.55;63.11
69247;BME280;56358;56.328;43.992;2022-11-15T09:28:06;100730.53;;;-0.18;63.37
69247;BME280;56358;56.328;43.992;2022-11-15T09:30:07;100712.41;;;-0.28;63.51
69247;BME280;56358;56.328;43.992;2022-11-15T09:32:08;100753.25;;;-0.12;62.92
69247;BME280;56358;56.328;43.992;2022-11-15T09:34:09;100748.78;;;-0.10;63.07
69247;BME280;56358;56.328;43.992;2022-11-15T09:36:10;100738.59;;;-0.22;63.02
69247;BME280;56358;56.328;43.992;2022-11-15T09:38:11;100752.69;;;-0.23;62.61
69247;BME280;56358;56.328;43.992;2022-11-15T09:40:14;100744.09;;;-0.30;63.85
69247;BME280;56358;56.328;43.992;2022-11-15T09:47:54;100739.66;;;-0.28;64.75
69247;BME280;56358;56.328;43.992;2022-11-15T09:49:58;100750.91;;;-0.23;64.62
69247;BME280;56358;56.328;43.992;2022-11-15T09:51:59;100714.50;;;-0.40;64.09
69247;BME280;56358;56.328;43.992;2022-11-15T09:54:29;100747.25;;;-0.17;63.83
69247;BME280;56358;56.328;43.992;2022-11-15T09:56:32;100749.09;;;-0.21;63.72
69247;BME280;56358;56.328;43.992;2022-11-15T09:58:53;100738.34;;;-0.13;63.81
69247;BME280;56358;56.328;43.992;2022-11-15T10:00:58;100749.78;;;-0.14;63.72
69247;BME280;56358;56.328;43.992;2022-11-15T10:03:14;100748.88;;;-0.13;63.74
69247;BME280;56358;56.328;43.992;2022-11-15T10:05:20;100744.28;;;-0.06;63.61
69247;BME280;56358;56.328;43.992;2022-11-15T10:11:57;100738.06;;;-0.04;63.00
69247;BME280;56358;56.328;43.992;2022-11-15T10:14:20;100734.53;;;-0.03;63.12
69247;BME280;56358;56.328;43.992;2022-11-15T10:18:34;100738.06;;;-0.04;63.42
69247;BME280;56358;56.328;43.992;2022-11-15T10:20:49;100742.28;;;0.02;63.09
69247;BME280;56358;56.328;43.992;2022-11-15T10:22:53;100550.56;;;-1.08;62.57
69247;BME280;56358;56.328;43.992;2022-11-15T10:25:12;100737.75;;;0.07;63.02
69247;BME280;56358;56.328;43.992;2022-11-15T10:27:17;100739.31;;;0.13;62.81
69247;BME280;56358;56.328;43.992;2022-11-15T10:29:23;100756.28;;;0.04;63.71
69247;BME280;56358;56.328;43.992;2022-11-15T10:31:27;100739.59;;;0.04;63.02
69247;BME280;56358;56.328;43.992;2022-11-15T10:33:38;100715.47;;;-0.12;63.11
69247;BME280;56358;56.328;43.992;2022-11-15T10:35:39;100718.06;;;-0.11;62.87
69247;BME280;56358;56.328;43.992;2022-11-15T10:37:40;100743.19;;;0.01;62.74
69247;BME280;56358;56.328;43.992;2022-11-15T10:39:40;100730.44;;;-0.13;63.28
69247;BME280;56358;56.328;43.992;2022-11-15T10:41:42;100697.75;;;-0.37;63.01
69247;BME280;56358;56.328;43.992;2022-11-15T10:43:43;100694.06;;;-0.31;62.77
69247;BME280;56358;56.328;43.992;2022-11-15T10:45:45;100739.00;;;-0.06;62.91
69247;BME280;56358;56.328;43.992;2022-11-15T10:47:46;100742.44;;;-0.03;62.91
69247;BME280;56358;56.328;43.992;2022-11-15T10:50:02;100741.50;;;-0.02;62.85
69247;BME280;56358;56.328;43.992;2022-11-15T10:52:24;100746.97;;;-0.08;63.25
69247;BME280;56358;56.328;43.992;2022-11-15T10:54:50;100727.97;;;-0.19;63.14
69247;BME280;56358;56.328;43.992;2022-11-15T10:56:54;100741.13;;;-0.19;62.99
69247;BME280;56358;56.328;43.992;2022-11-15T10:58:57;100720.25;;;-0.25;63.15
69247;BME280;56358;56.328;43.992;2022-11-15T11:01:15;100745.34;;;-0.13;63.05
69247;BME280;56358;56.328;43.992;2022-11-15T11:03:29;100740.91;;;-0.11;63.22
69247;BME280;56358;56.328;43.992;2022-11-15T11:05:36;100639.09;;;-0.74;62.80
69247;BME280;56358;56.328;43.992;2022-11-15T11:07:37;100741.97;;;-0.17;63.15
69247;BME280;56358;56.328;43.992;2022-11-15T11:09:39;100734.81;;;-0.13;63.30
69247;BME280;56358;56.328;43.992;2022-11-15T11:11:52;100745.25;;;-0.09;63.17
69247;BME280;56358;56.328;43.992;2022-11-15T11:13:53;100738.28;;;-0.11;63.25
69247;BME280;56358;56.328;43.992;2022-11-15T11:18:30;100746.97;;;-0.08;63.47
69247;BME280;56358;56.328;43.992;2022-11-15T11:20:49;100753.78;;;-0.01;63.37
69247;BME280;56358;56.328;43.992;2022-11-15T11:32:29;100735.53;;;-0.08;63.39